Firdale, Washington
Current Conditions -  °F | °C
As of 9:01 PM on Wednesday 22 Oct 2014 (Local Time) from KHQM Reporting Station
Light Rain Light Rain  
Wind Chill: 57°   Ceiling: 2100
Heat Index: 57°   Visibility: 8mi
Dew Point: 55°   Wind: 10mph
Humidity: 93%   Direction: 190°S
Pressure: 29.62"   Gusts: NA
Location:  46.6563°N, 123.58°W
Report Text: KHQM 230401Z AUTO 19009KT 8SM -RA SCT015 BKN021 BKN032 14/13 A2962 RMK AO2 P0000 T01390128
Loading
Personal Weather Stations






























Interactive Weather Map
Tropical Storm Tracking
New forecast layout! Learn more

10-Day Weather Forecast

Advertisements
Track Severe Weather on mobile